createdAt,value
2022-08-19T00:04:19.115Z,15.90
2022-08-19T00:08:52.367Z,16.90
2022-08-19T00:13:25.045Z,19.80
2022-08-19T00:17:58.098Z,17.80
2022-08-19T00:22:44.600Z,17.50
2022-08-19T00:27:25.996Z,17.60
2022-08-19T00:31:59.355Z,19.20
2022-08-19T00:36:45.788Z,17.00
2022-08-19T00:41:18.520Z,18.90
2022-08-19T00:46:04.685Z,17.20
2022-08-19T00:50:37.983Z,17.00
2022-08-19T00:55:38.319Z,18.80
2022-08-19T01:00:24.246Z,17.50
2022-08-19T01:04:57.150Z,21.50
2022-08-19T01:09:29.620Z,17.80
2022-08-19T01:14:02.361Z,19.50
2022-08-19T01:18:35.423Z,18.70
2022-08-19T01:23:16.303Z,18.30
2022-08-19T01:28:10.655Z,18.60
2022-08-19T01:32:42.779Z,23.20
2022-08-19T01:37:31.980Z,20.40
2022-08-19T01:42:05.104Z,22.40
2022-08-19T01:46:51.839Z,16.90
2022-08-19T01:51:24.684Z,14.70
2022-08-19T01:56:10.900Z,14.00
2022-08-19T02:00:44.240Z,16.50
2022-08-19T02:05:30.538Z,21.40
2022-08-19T02:10:17.307Z,22.00
2022-08-19T02:14:50.333Z,18.50
2022-08-19T02:19:36.681Z,18.90
2022-08-19T02:24:13.778Z,19.80
2022-08-19T02:28:46.825Z,17.30
2022-08-19T02:33:31.807Z,15.70
2022-08-19T02:38:18.803Z,16.60
2022-08-19T02:42:50.322Z,18.80
2022-08-19T02:47:23.700Z,14.60
2022-08-19T02:51:51.835Z,15.70
2022-08-19T02:56:38.180Z,14.90
2022-08-19T03:01:11.594Z,15.70
2022-08-19T03:05:57.358Z,13.60
2022-08-19T03:10:30.741Z,17.50
2022-08-19T03:15:17.117Z,17.00
2022-08-19T03:19:49.840Z,19.50
2022-08-19T03:24:35.116Z,15.80
2022-08-19T03:29:30.915Z,21.00
2022-08-19T03:34:04.904Z,17.60
2022-08-19T03:38:40.399Z,20.30
2022-08-19T03:43:13.200Z,16.30
2022-08-19T03:47:58.225Z,20.20
2022-08-19T03:52:30.823Z,21.30
2022-08-19T03:57:04.138Z,22.60
2022-08-19T04:06:08.517Z,23.90
2022-08-19T04:10:55.311Z,23.10
2022-08-19T04:15:28.155Z,24.60
2022-08-19T04:20:00.678Z,24.20
2022-08-19T04:24:33.950Z,26.20
2022-08-19T04:29:09.228Z,29.10
2022-08-19T04:33:44.646Z,23.70
2022-08-19T04:38:10.337Z,25.00
2022-08-19T04:42:41.588Z,23.00
2022-08-19T04:47:10.914Z,24.00
2022-08-19T04:51:38.903Z,25.80
2022-08-19T04:56:25.149Z,24.50
2022-08-19T05:00:52.607Z,23.70
2022-08-19T05:05:44.557Z,22.70
2022-08-19T05:10:18.459Z,23.30
2022-08-19T05:15:04.719Z,22.50
2022-08-19T05:19:49.807Z,18.90
2022-08-19T05:24:44.032Z,18.90
2022-08-19T05:29:36.714Z,21.30
2022-08-19T05:34:18.350Z,18.80
2022-08-19T05:38:46.529Z,18.90
2022-08-19T05:43:19.483Z,23.10
2022-08-19T05:47:44.474Z,19.80
2022-08-19T05:52:18.847Z,23.80
2022-08-19T05:56:54.882Z,20.90
2022-08-19T06:01:20.673Z,20.40
2022-08-19T06:05:53.660Z,17.50
2022-08-19T06:10:40.129Z,18.50
2022-08-19T06:15:26.516Z,16.40
2022-08-19T06:20:13.248Z,19.50
2022-08-19T06:24:58.867Z,17.60
2022-08-19T06:29:23.934Z,19.20
2022-08-19T06:34:10.479Z,15.30
2022-08-19T06:38:56.970Z,17.20
2022-08-19T06:43:29.579Z,17.60
2022-08-19T06:48:02.671Z,18.00
2022-08-19T06:52:38.277Z,14.90
2022-08-19T06:57:01.441Z,15.20
2022-08-19T07:01:34.527Z,15.80
2022-08-19T07:06:09.819Z,14.70
2022-08-19T07:10:54.319Z,16.60
2022-08-19T07:15:19.676Z,15.70
2022-08-19T07:19:54.231Z,14.60
2022-08-19T07:24:11.408Z,14.10
2022-08-19T07:28:37.097Z,17.10
2022-08-19T07:33:09.420Z,14.70
2022-08-19T07:37:36.751Z,15.80
2022-08-19T07:42:01.115Z,16.10
2022-08-19T07:51:36.307Z,16.20
2022-08-19T07:56:22.314Z,14.10
2022-08-19T08:00:45.826Z,14.20
2022-08-19T08:05:04.773Z,17.40
2022-08-19T08:09:12.256Z,14.60
2022-08-19T08:13:39.090Z,17.70
2022-08-19T08:18:11.490Z,15.90
2022-08-19T08:22:43.164Z,16.60
2022-08-19T08:27:11.264Z,15.00
2022-08-19T08:31:39.106Z,14.00
2022-08-19T08:36:06.022Z,17.90
2022-08-19T08:40:50.612Z,14.40
2022-08-19T08:45:29.377Z,18.40
2022-08-19T08:50:33.165Z,14.90
2022-08-19T08:55:20.339Z,15.40
2022-08-19T09:00:15.364Z,16.60
2022-08-19T09:04:42.204Z,15.00
2022-08-19T09:09:12.222Z,27.40
2022-08-19T09:13:41.865Z,16.90
2022-08-19T09:18:19.098Z,16.50
2022-08-19T09:22:46.644Z,16.20
2022-08-19T09:27:41.955Z,21.60
2022-08-19T09:32:26.915Z,16.10
2022-08-19T09:37:15.521Z,17.20
2022-08-19T09:41:49.065Z,19.00
2022-08-19T09:46:23.950Z,16.10
2022-08-19T09:51:21.721Z,16.40
2022-08-19T09:56:09.581Z,18.80
2022-08-19T10:00:43.963Z,18.50
2022-08-19T10:15:58.670Z,18.70
2022-08-19T10:20:31.490Z,21.60
2022-08-19T10:25:01.081Z,20.20
2022-08-19T10:29:37.135Z,20.30
2022-08-19T10:34:35.199Z,19.00
2022-08-19T10:39:11.270Z,17.60
2022-08-19T10:43:58.730Z,19.40
2022-08-19T10:59:17.144Z,20.90
2022-08-19T11:03:42.771Z,16.50
2022-08-19T11:07:54.306Z,20.40
2022-08-19T11:11:42.365Z,20.00
2022-08-19T11:20:32.530Z,20.50
2022-08-19T11:23:41.103Z,17.90
2022-08-19T11:27:36.035Z,18.30
2022-08-19T11:31:55.614Z,23.20
2022-08-19T11:36:03.655Z,24.70
2022-08-19T11:40:46.890Z,18.90
2022-08-19T11:44:41.017Z,19.00
2022-08-19T11:49:05.510Z,18.50
2022-08-19T11:53:35.814Z,19.00
2022-08-19T11:58:19.218Z,16.60
2022-08-19T12:02:52.409Z,19.50
2022-08-19T12:07:33.287Z,18.50
2022-08-19T12:12:06.258Z,17.40
2022-08-19T12:16:48.589Z,16.60
2022-08-19T12:21:24.198Z,16.70
2022-08-19T12:25:56.810Z,16.20
2022-08-19T12:30:24.999Z,15.50
2022-08-19T12:35:11.686Z,15.00
2022-08-19T12:39:39.116Z,15.90
2022-08-19T12:44:29.118Z,17.40
2022-08-19T12:49:26.578Z,16.00
2022-08-19T12:54:10.242Z,17.60
2022-08-19T12:58:40.819Z,15.30
2022-08-19T13:03:14.620Z,14.10
2022-08-19T13:07:48.349Z,15.10
2022-08-19T13:12:24.911Z,15.30
2022-08-19T13:16:58.659Z,13.90
2022-08-19T13:21:26.012Z,16.60
2022-08-19T13:25:43.024Z,16.40
2022-08-19T13:30:26.314Z,15.80
2022-08-19T13:34:50.109Z,14.30
2022-08-19T13:39:15.789Z,17.00
2022-08-19T13:43:38.946Z,14.80
2022-08-19T13:48:12.504Z,15.50
2022-08-19T13:57:27.576Z,12.60
2022-08-19T14:02:01.870Z,18.40
2022-08-19T14:06:35.161Z,16.30
2022-08-19T14:11:06.536Z,15.70
2022-08-19T14:15:31.947Z,15.00
2022-08-19T14:19:44.678Z,15.40
2022-08-19T14:24:04.170Z,15.00
2022-08-19T14:28:51.468Z,16.90
2022-08-19T14:33:07.362Z,18.70
2022-08-19T14:37:45.160Z,16.20
2022-08-19T14:42:18.650Z,13.00
2022-08-19T14:46:49.381Z,13.30
2022-08-19T14:51:09.465Z,17.50
2022-08-19T14:55:32.389Z,13.80
2022-08-19T15:00:05.398Z,13.50
2022-08-19T15:04:37.881Z,14.00
2022-08-19T15:09:11.136Z,14.30
2022-08-19T15:13:44.262Z,13.70
2022-08-19T15:18:30.683Z,12.50
2022-08-19T15:23:03.130Z,15.20
2022-08-19T15:27:36.538Z,16.90
2022-08-19T15:32:02.885Z,14.50
2022-08-19T15:36:35.783Z,15.40
2022-08-19T15:41:22.947Z,11.80
2022-08-19T15:46:09.954Z,15.20
2022-08-19T15:51:03.004Z,17.20
2022-08-19T15:55:33.379Z,15.70
2022-08-19T16:00:05.480Z,19.90
2022-08-19T16:04:30.502Z,21.50
2022-08-19T16:09:03.310Z,19.00
2022-08-19T16:13:48.750Z,14.20
2022-08-19T16:18:35.145Z,19.50
2022-08-19T16:23:10.707Z,18.70
2022-08-19T16:27:38.373Z,18.20
2022-08-19T16:32:12.101Z,15.90
2022-08-19T16:36:44.376Z,15.00
2022-08-19T16:41:17.334Z,14.10
2022-08-19T16:45:58.550Z,12.30
2022-08-19T16:50:48.255Z,14.70
2022-08-19T16:55:22.046Z,13.30
2022-08-19T17:00:08.349Z,12.10
2022-08-19T17:04:33.547Z,18.30
2022-08-19T17:09:06.873Z,16.30
2022-08-19T17:13:39.885Z,13.30
2022-08-19T17:18:03.424Z,13.70
2022-08-19T17:22:31.306Z,13.60
2022-08-19T17:26:48.010Z,14.80
2022-08-19T17:31:13.597Z,15.60
2022-08-19T17:35:46.954Z,17.20
2022-08-19T17:40:23.254Z,14.00
2022-08-19T17:44:57.299Z,17.80
2022-08-19T17:49:29.110Z,15.30
2022-08-19T17:54:02.769Z,13.10
2022-08-19T17:58:36.010Z,15.00
2022-08-19T18:03:09.760Z,15.80
2022-08-19T18:07:55.701Z,13.70
2022-08-19T18:12:38.426Z,16.20
2022-08-19T18:17:12.977Z,14.30
2022-08-19T18:21:41.157Z,13.50
2022-08-19T18:26:17.749Z,14.50
2022-08-19T18:30:55.467Z,13.70
2022-08-19T18:35:28.890Z,18.00
2022-08-19T18:40:02.184Z,16.80
2022-08-19T18:44:39.169Z,15.90
2022-08-19T18:49:26.191Z,15.20
2022-08-19T18:54:00.628Z,12.30
2022-08-19T18:58:33.957Z,16.50
2022-08-19T19:03:20.692Z,14.70
2022-08-19T19:07:49.305Z,13.60
2022-08-19T19:12:21.694Z,10.90
2022-08-19T19:16:54.528Z,11.90
2022-08-19T19:21:29.850Z,12.20
2022-08-19T19:26:05.244Z,13.60
2022-08-19T19:30:38.559Z,12.20
2022-08-19T19:35:03.707Z,9.90
2022-08-19T19:44:31.018Z,13.60
2022-08-19T19:49:01.529Z,13.00
2022-08-19T19:53:29.450Z,9.40
2022-08-19T19:58:02.424Z,11.70
2022-08-19T20:02:30.943Z,13.40
2022-08-19T20:07:17.759Z,14.00
2022-08-19T20:11:53.570Z,12.90
2022-08-19T20:16:29.805Z,12.10
2022-08-19T20:21:11.047Z,14.70
2022-08-19T20:25:56.743Z,10.80
2022-08-19T20:30:27.920Z,13.90
2022-08-19T20:35:17.906Z,13.50
2022-08-19T20:39:51.780Z,16.00
2022-08-19T20:44:25.612Z,12.30
2022-08-19T20:48:57.090Z,13.10
2022-08-19T20:53:29.449Z,13.30
2022-08-19T20:58:02.185Z,11.00
2022-08-19T21:02:48.566Z,12.50
2022-08-19T21:07:20.008Z,14.50
2022-08-19T21:11:53.170Z,13.50
2022-08-19T21:16:26.562Z,11.30
2022-08-19T21:26:00.355Z,16.10
2022-08-19T21:30:47.020Z,14.70
2022-08-19T21:35:20.146Z,15.30
2022-08-19T21:40:06.421Z,15.30
2022-08-19T21:44:39.875Z,13.40
2022-08-19T21:49:15.259Z,16.80
2022-08-19T21:53:48.777Z,14.20
2022-08-19T21:58:29.887Z,15.50
2022-08-19T22:03:03.953Z,18.30
2022-08-19T22:07:50.874Z,15.50
2022-08-19T22:12:38.118Z,13.70
2022-08-19T22:17:03.663Z,17.50
2022-08-19T22:21:40.931Z,16.10
2022-08-19T22:26:14.029Z,16.90
2022-08-19T22:30:47.394Z,15.80
2022-08-19T22:35:39.338Z,17.60
2022-08-19T22:40:25.803Z,13.20
2022-08-19T22:45:11.539Z,16.90
2022-08-19T22:50:13.765Z,13.10
2022-08-19T22:54:48.326Z,15.80
2022-08-19T22:59:21.541Z,18.60
2022-08-19T23:03:56.486Z,17.30
2022-08-19T23:08:29.251Z,13.70
2022-08-19T23:13:16.001Z,13.70
2022-08-19T23:17:49.287Z,18.20
2022-08-19T23:22:25.164Z,15.40
2022-08-19T23:26:58.249Z,14.20
2022-08-19T23:31:31.086Z,18.20
2022-08-19T23:36:12.010Z,14.10
2022-08-19T23:40:58.547Z,16.40
2022-08-19T23:45:50.897Z,15.20
2022-08-19T23:50:23.851Z,14.80
2022-08-19T23:54:56.810Z,13.90
2022-08-19T23:59:29.890Z,14.50
